Kalamazoo, MI (49001)

12:26 AM EST on January 17, 2017 (GMT -0500)
Milwood (The Best Nest) | | Change Station
Active Advisory: Flood Warning, Flood Advisory

Elev 850 ft 42.26 °N, 85.56 °W | Updated 6 seconds ago

Light Rain
Light Rain Mist
37.9 °F
Feels Like 38 °F
N
0.0
Wind Variable Wind from West
Gusts 0.0 mph

Today
High -- | Low -- °F
--% Chance of Precip.
Yesterday
High -- | Low -- °F
Precip. -- in
Pressure 30.00 in
Visibility 2.0 miles
Clouds Overcast 300 ft
Windchill 38 °F
Dew Point 35 °F
Humidity 90%
Rainfall 0.00 in
Snow Depth Not available.
8:07 AM 5:37 PM
Waning Gibbous, 75% visible
METAR KAZO 170453Z AUTO 12005KT 2SM -RA BR OVC003 02/01 A2998 RMK AO2 RAB02 SLP159 P0001 T00220011 400221061
Pressure 30.00 in
Visibility 2.0 miles
Clouds Overcast 300 ft
Windchill 38 °F
Dew Point 35 °F
Humidity 90%
Rainfall 0.00 in
Snow Depth Not available.
8:07 AM 5:37 PM
Waning Gibbous, 75% visible
METAR KAZO 170453Z AUTO 12005KT 2SM -RA BR OVC003 02/01 A2998 RMK AO2 RAB02 SLP159 P0001 T00220011 400221061

Get Your Daily Forecast Email!

Thanks for signing up!

Be on the lookout for a verification email in your inbox.

You'll start receiving the daily forecast at 8 AM.

×

10-Day Weather Forecast

Almanac

Astronomy

Jan. 17, 2017 Rise Set
Actual Time
Civil Twilight
Nautical Twilight
Astronomical Twilight
Moon
Length of Visible Light
Length of Day
Tomorrow will be .
, % of the Moon is Illuminated

Today's Extremes

State Highs State Lows

Community

WunderPhotos

Upload Photos

1,962,540 photos uploaded!

WunderBlog® & News

Nearby

Air Quality

  Air Quality AQ Index Pollutant
Not available.

Snow Depth

Station Depth Elevation

Earthquake Activity

City Distance Mag. Time & Date
Minimum magnitude displayed is 2.5.

Coastal Water Temperatures

Place Temperature

Stations

Nearby Weather Stations

Station Location Temp. Windchill Dew Point Humidity Wind Precip. Elev Updated Type
                   

Watches & Warnings

Flood Warning
Issued: 9:33 PM EST Jan. 16, 2017 – National Weather Service

* flood stage is 5.0 feet.
* Forecast, the river is forecast to have a maximum value of 5.0 feet
tomorrow evening.
* Impact, at 5.0 feet... expect overflows into wooded areas and
farmland adjacent to the river
* flood history, this crest compares to a previous crest of 5.0 feet
on Apr 20 2013.


Lat... Lon 4208 8547 4211 8544 4216 8544 4215 8548
      4211 8553 4208 8552




Flood Advisory
Issued: 9:41 PM EST Jan. 16, 2017 – National Weather Service

The National Weather Service in Grand Rapids has issued a
* Flood Advisory for
the Portage River near Vicksburg.
* From Tuesday evening to Wednesday morning.
* There is not current observed data.
* Bankfull stage is 5.0 feet.
* Flood stage is 5.0 feet.
* Impact, at 5.0 feet... expect overflows into wooded areas and
farmland adjacent to the river


Lat... Lon 4208 8547 4211 8544 4216 8544 4215 8548
      4211 8553 4208 8552